Terminal Aerodrome Forecast
Issued by NWS

Home | Current Version | Previous Version | Text Only | Print | Product List | Glossary On
Versions: 1 2 3 4 5 6 7 8 9 10 11 12
833
FTUS46 KLOX 251300 AAA
TAFPRB
TAF AMD
KPRB 251300Z 2513/2612 33016G22KT P6SM SCT012
     FM251700 32015G25KT P6SM SCT200
     FM260500 32012KT P6SM SCT200
     FM261100 35007KT P6SM BKN012 BKN200=

USA.gov is the U.S. government's official web portal to all federal, state and local government web resources and services.